createdAt,value
2023-10-03T00:00:58.960Z,16.36
2023-10-03T00:03:28.584Z,16.36
2023-10-03T00:05:58.811Z,16.30
2023-10-03T00:08:28.576Z,16.54
2023-10-03T00:10:58.400Z,16.28
2023-10-03T00:13:27.104Z,16.36
2023-10-03T00:15:55.781Z,16.48
2023-10-03T00:18:25.205Z,16.37
2023-10-03T00:20:54.015Z,16.23
2023-10-03T00:23:25.300Z,16.15
2023-10-03T00:25:55.372Z,16.36
2023-10-03T00:28:24.104Z,16.28
2023-10-03T00:30:52.850Z,16.20
2023-10-03T00:33:26.288Z,16.30
2023-10-03T00:35:55.179Z,16.12
2023-10-03T00:38:25.590Z,16.21
2023-10-03T00:40:56.955Z,16.29
2023-10-03T00:43:26.928Z,16.05
2023-10-03T00:45:55.845Z,15.88
2023-10-03T00:48:25.084Z,16.18
2023-10-03T00:50:56.817Z,16.32
2023-10-03T00:53:27.223Z,16.20
2023-10-03T00:56:00.430Z,16.08
2023-10-03T00:58:33.708Z,16.07
2023-10-03T01:01:04.609Z,16.04
2023-10-03T01:03:38.471Z,16.05
2023-10-03T01:06:10.242Z,16.06
2023-10-03T01:08:42.481Z,16.40
2023-10-03T01:11:17.437Z,16.21
2023-10-03T01:13:48.712Z,15.96
2023-10-03T01:16:26.567Z,16.27
2023-10-03T01:19:00.328Z,16.09
2023-10-03T01:21:30.046Z,16.03
2023-10-03T01:24:00.553Z,15.97
2023-10-03T01:26:29.587Z,15.91
2023-10-03T01:28:58.597Z,16.15
2023-10-03T01:31:28.320Z,15.72
2023-10-03T01:33:57.282Z,15.90
2023-10-03T01:36:30.501Z,15.88
2023-10-03T01:39:01.134Z,15.94
2023-10-03T01:41:29.908Z,16.08
2023-10-03T01:43:59.181Z,15.95
2023-10-03T01:46:28.127Z,15.95
2023-10-03T01:48:58.190Z,16.06
2023-10-03T01:51:28.064Z,15.99
2023-10-03T01:53:58.348Z,15.91
2023-10-03T01:56:32.450Z,15.95
2023-10-03T01:59:02.257Z,15.75
2023-10-03T02:01:31.522Z,15.99
2023-10-03T02:04:00.846Z,15.89
2023-10-03T02:06:31.013Z,15.97
2023-10-03T02:09:01.274Z,15.88
2023-10-03T02:11:33.431Z,15.86
2023-10-03T02:14:07.725Z,15.81
2023-10-03T02:16:42.555Z,16.02
2023-10-03T02:19:12.290Z,15.86
2023-10-03T02:21:43.879Z,15.83
2023-10-03T02:24:14.305Z,15.77
2023-10-03T02:26:46.594Z,15.93
2023-10-03T02:29:15.434Z,15.48
2023-10-03T02:31:45.850Z,15.88
2023-10-03T02:34:16.659Z,15.71
2023-10-03T02:36:49.704Z,15.84
2023-10-03T02:39:26.122Z,15.74
2023-10-03T02:41:56.750Z,15.84
2023-10-03T02:44:28.314Z,15.87
2023-10-03T02:46:59.438Z,15.88
2023-10-03T02:49:28.852Z,15.72
2023-10-03T02:52:01.097Z,15.64
2023-10-03T02:54:33.562Z,15.84
2023-10-03T02:57:03.826Z,15.86
2023-10-03T02:59:32.476Z,15.74
2023-10-03T03:02:01.289Z,15.74
2023-10-03T03:04:30.951Z,15.73
2023-10-03T03:07:05.534Z,15.85
2023-10-03T03:09:37.592Z,15.66
2023-10-03T03:12:08.652Z,15.50
2023-10-03T03:14:38.254Z,15.74
2023-10-03T03:17:14.931Z,15.64
2023-10-03T03:19:46.138Z,15.60
2023-10-03T03:22:17.677Z,15.73
2023-10-03T03:24:52.903Z,15.60
2023-10-03T03:27:27.405Z,15.60
2023-10-03T03:30:24.197Z,15.62
2023-10-03T03:32:52.903Z,15.38
2023-10-03T03:35:25.779Z,15.67
2023-10-03T03:37:57.337Z,15.53
2023-10-03T03:40:33.052Z,15.56
2023-10-03T03:43:04.940Z,15.77
2023-10-03T03:45:33.992Z,15.53
2023-10-03T03:48:02.920Z,15.57
2023-10-03T03:50:35.458Z,15.50
2023-10-03T03:53:05.282Z,15.45
2023-10-03T03:55:35.282Z,15.52
2023-10-03T03:58:08.849Z,15.55
2023-10-03T04:00:39.933Z,15.60
2023-10-03T04:03:10.452Z,15.53
2023-10-03T04:05:40.639Z,15.55
2023-10-03T04:08:09.822Z,15.64
2023-10-03T04:10:38.630Z,15.39
2023-10-03T04:13:11.565Z,15.47
2023-10-03T04:15:41.953Z,15.29
2023-10-03T04:18:11.116Z,15.29
2023-10-03T04:20:42.447Z,15.47
2023-10-03T04:23:12.498Z,15.26
2023-10-03T04:25:41.528Z,15.37
2023-10-03T04:28:12.930Z,15.35
2023-10-03T04:30:42.588Z,15.29
2023-10-03T04:33:12.666Z,15.35
2023-10-03T04:35:42.937Z,15.21
2023-10-03T04:38:15.836Z,15.34
2023-10-03T04:40:46.343Z,15.08
2023-10-03T04:43:17.074Z,15.22
2023-10-03T04:45:46.414Z,15.28
2023-10-03T04:48:15.238Z,15.21
2023-10-03T04:50:44.054Z,15.18
2023-10-03T04:53:15.865Z,15.27
2023-10-03T04:55:45.932Z,15.05
2023-10-03T04:58:16.962Z,15.06
2023-10-03T05:00:48.950Z,15.22
2023-10-03T05:03:20.937Z,15.12
2023-10-03T05:05:51.275Z,15.04
2023-10-03T05:08:20.422Z,15.04
2023-10-03T05:10:49.305Z,15.08
2023-10-03T05:13:20.947Z,15.17
2023-10-03T05:15:49.880Z,15.21
2023-10-03T05:18:18.698Z,15.26
2023-10-03T05:20:47.517Z,15.34
2023-10-03T05:23:16.935Z,15.25
2023-10-03T05:25:45.630Z,15.08
2023-10-03T05:28:14.426Z,15.36
2023-10-03T05:30:44.798Z,15.25
2023-10-03T05:33:13.662Z,15.33
2023-10-03T05:35:42.541Z,15.39
2023-10-03T05:38:11.614Z,15.53
2023-10-03T05:40:41.059Z,15.51
2023-10-03T05:43:10.151Z,15.61
2023-10-03T05:45:39.105Z,15.49
2023-10-03T05:48:09.642Z,15.30
2023-10-03T05:50:38.580Z,15.36
2023-10-03T05:53:08.482Z,15.44
2023-10-03T05:55:37.953Z,15.71
2023-10-03T05:58:08.753Z,15.50
2023-10-03T06:00:37.580Z,15.53
2023-10-03T06:03:06.774Z,15.51
2023-10-03T06:05:37.311Z,15.63
2023-10-03T06:08:07.062Z,15.69
2023-10-03T06:10:35.788Z,15.75
2023-10-03T06:13:06.987Z,15.64
2023-10-03T06:15:37.419Z,15.93
2023-10-03T06:18:06.620Z,16.04
2023-10-03T06:20:35.968Z,15.94
2023-10-03T06:23:06.454Z,16.19
2023-10-03T06:25:35.155Z,16.10
2023-10-03T06:28:03.951Z,16.27
2023-10-03T06:30:38.452Z,16.20
2023-10-03T06:33:08.678Z,16.39
2023-10-03T06:35:39.975Z,16.28
2023-10-03T06:38:10.054Z,16.43
2023-10-03T06:40:39.119Z,16.71
2023-10-03T06:43:07.917Z,16.82
2023-10-03T06:45:36.775Z,16.84
2023-10-03T06:48:07.196Z,16.88
2023-10-03T06:50:35.961Z,16.94
2023-10-03T06:53:06.605Z,16.82
2023-10-03T06:55:37.615Z,16.56
2023-10-03T06:58:06.598Z,16.83
2023-10-03T07:00:35.306Z,17.20
2023-10-03T07:03:05.025Z,17.09
2023-10-03T07:05:34.868Z,16.78
2023-10-03T07:08:05.025Z,17.09
2023-10-03T07:10:34.235Z,17.13
2023-10-03T07:13:05.736Z,17.39
2023-10-03T07:15:34.724Z,17.12
2023-10-03T07:18:04.969Z,17.41
2023-10-03T07:20:38.032Z,17.49
2023-10-03T07:23:06.781Z,17.74
2023-10-03T07:25:35.741Z,17.66
2023-10-03T07:28:06.484Z,17.70
2023-10-03T07:30:35.917Z,17.89
2023-10-03T07:33:06.497Z,17.85
2023-10-03T07:35:38.753Z,18.24
2023-10-03T07:38:07.869Z,18.08
2023-10-03T07:40:36.846Z,18.18
2023-10-03T07:43:10.443Z,18.10
2023-10-03T07:45:39.462Z,18.47
2023-10-03T07:48:08.604Z,18.34
2023-10-03T07:50:38.706Z,18.54
2023-10-03T07:53:12.433Z,18.67
2023-10-03T07:55:42.334Z,18.59
2023-10-03T07:58:15.564Z,18.78
2023-10-03T08:00:45.943Z,18.89
2023-10-03T08:03:15.386Z,19.03
2023-10-03T08:05:44.490Z,19.24
2023-10-03T08:08:13.266Z,19.33
2023-10-03T08:10:47.802Z,19.53
2023-10-03T08:13:20.294Z,19.41
2023-10-03T08:15:49.284Z,19.19
2023-10-03T08:18:20.043Z,19.29
2023-10-03T08:20:54.902Z,19.54
2023-10-03T08:23:24.178Z,19.58
2023-10-03T08:25:57.760Z,19.70
2023-10-03T08:28:29.744Z,19.80
2023-10-03T08:31:07.091Z,19.90
2023-10-03T08:33:37.682Z,19.80
2023-10-03T08:36:15.794Z,19.81
2023-10-03T08:38:45.631Z,20.02
2023-10-03T08:41:17.907Z,19.96
2023-10-03T08:43:56.997Z,20.15
2023-10-03T08:46:27.088Z,20.25
2023-10-03T08:49:01.978Z,20.50
2023-10-03T08:51:34.030Z,20.44
2023-10-03T08:54:10.471Z,20.40
2023-10-03T08:56:41.349Z,20.41
2023-10-03T08:59:16.928Z,20.87
2023-10-03T09:01:47.808Z,20.72
2023-10-03T09:04:18.720Z,21.14
2023-10-03T09:06:48.255Z,21.10
2023-10-03T09:09:17.969Z,21.18
2023-10-03T09:11:52.407Z,21.31
2023-10-03T09:14:22.992Z,21.12
2023-10-03T09:16:54.019Z,21.49
2023-10-03T09:19:25.815Z,21.52
2023-10-03T09:21:55.140Z,21.65
2023-10-03T09:24:24.769Z,21.71
2023-10-03T09:26:56.242Z,21.82
2023-10-03T09:29:34.004Z,22.04
2023-10-03T09:32:09.346Z,22.20
2023-10-03T09:34:41.956Z,22.08
2023-10-03T09:37:11.201Z,22.26
2023-10-03T09:39:50.764Z,22.44
2023-10-03T09:42:24.775Z,22.66
2023-10-03T09:44:59.398Z,22.44
2023-10-03T09:47:33.519Z,22.58
2023-10-03T09:50:07.672Z,22.71
2023-10-03T09:52:39.281Z,22.96
2023-10-03T09:55:22.924Z,23.14
2023-10-03T09:57:56.089Z,23.22
2023-10-03T10:00:40.487Z,23.17
2023-10-03T10:03:12.689Z,23.27
2023-10-03T10:05:47.588Z,23.42
2023-10-03T10:08:23.602Z,23.49
2023-10-03T10:11:08.625Z,23.50
2023-10-03T10:13:38.617Z,23.75
2023-10-03T10:16:16.831Z,23.69
2023-10-03T10:19:01.627Z,23.96
2023-10-03T10:21:33.125Z,24.13
2023-10-03T10:24:29.794Z,24.34
2023-10-03T10:27:01.242Z,24.31
2023-10-03T10:29:35.683Z,24.20
2023-10-03T10:32:20.223Z,24.28
2023-10-03T10:34:48.352Z,24.27
2023-10-03T10:37:23.519Z,24.44
2023-10-03T10:40:18.770Z,24.58
2023-10-03T10:42:58.321Z,24.65
2023-10-03T10:45:26.790Z,24.67
2023-10-03T10:47:57.995Z,24.75
2023-10-03T10:50:28.802Z,24.86
2023-10-03T10:52:59.181Z,24.87
2023-10-03T10:55:28.381Z,24.79
2023-10-03T10:58:09.353Z,24.88
2023-10-03T11:00:38.997Z,24.89
2023-10-03T11:03:09.684Z,24.77
2023-10-03T11:05:47.146Z,25.15
2023-10-03T11:08:16.107Z,24.95
2023-10-03T11:10:53.711Z,25.17
2023-10-03T11:13:23.167Z,25.24
2023-10-03T11:15:52.500Z,25.17
2023-10-03T11:18:29.896Z,25.24
2023-10-03T11:20:59.472Z,25.31
2023-10-03T11:23:28.284Z,25.29
2023-10-03T11:25:57.978Z,25.28
2023-10-03T11:28:29.761Z,25.30
2023-10-03T11:31:05.940Z,25.30
2023-10-03T11:33:45.996Z,25.54
2023-10-03T11:36:16.692Z,25.51
2023-10-03T11:38:46.314Z,25.55
2023-10-03T11:41:15.253Z,25.37
2023-10-03T11:43:47.445Z,25.63
2023-10-03T11:46:17.212Z,25.72
2023-10-03T11:48:47.901Z,25.67
2023-10-03T11:51:16.754Z,25.73
2023-10-03T11:53:46.935Z,25.72
2023-10-03T11:56:15.648Z,25.76
2023-10-03T11:58:44.535Z,25.85
2023-10-03T12:01:13.418Z,25.93
2023-10-03T12:03:42.567Z,25.64
2023-10-03T12:06:12.728Z,25.80
2023-10-03T12:08:43.342Z,26.11
2023-10-03T12:11:15.932Z,26.10
2023-10-03T12:13:44.778Z,26.21
2023-10-03T12:16:13.761Z,26.04
2023-10-03T12:18:42.425Z,26.14
2023-10-03T12:21:12.708Z,26.27
2023-10-03T12:23:42.204Z,25.89
2023-10-03T12:26:24.508Z,26.18
2023-10-03T12:29:00.001Z,26.20
2023-10-03T12:31:29.205Z,26.30
2023-10-03T12:33:59.172Z,26.29
2023-10-03T12:36:30.990Z,26.36
2023-10-03T12:39:00.945Z,26.34
2023-10-03T12:41:31.376Z,26.31
2023-10-03T12:44:00.335Z,26.23
2023-10-03T12:46:29.047Z,26.42
2023-10-03T12:48:57.710Z,26.51
2023-10-03T12:51:27.425Z,26.61
2023-10-03T12:53:58.048Z,26.51
2023-10-03T12:56:28.481Z,26.68
2023-10-03T12:58:58.804Z,26.64
2023-10-03T13:01:27.990Z,26.55
2023-10-03T13:03:57.035Z,26.71
2023-10-03T13:06:26.844Z,26.66
2023-10-03T13:08:57.134Z,27.04
2023-10-03T13:11:25.850Z,26.98
2023-10-03T13:13:55.853Z,27.14
2023-10-03T13:16:25.867Z,27.23
2023-10-03T13:18:54.895Z,27.18
2023-10-03T13:21:24.550Z,27.35
2023-10-03T13:23:53.252Z,27.46
2023-10-03T13:26:23.585Z,27.50
2023-10-03T13:28:53.306Z,27.51
2023-10-03T13:31:22.624Z,27.54
2023-10-03T13:33:51.961Z,27.61
2023-10-03T13:36:21.730Z,27.76
2023-10-03T13:38:51.894Z,27.79
2023-10-03T13:41:20.842Z,27.92
2023-10-03T13:43:51.039Z,27.99
2023-10-03T13:46:20.525Z,27.89
2023-10-03T13:48:52.298Z,28.12
2023-10-03T13:51:21.852Z,28.07
2023-10-03T13:53:51.274Z,28.23
2023-10-03T13:56:20.221Z,28.26
2023-10-03T13:58:51.162Z,28.24
2023-10-03T14:01:20.239Z,27.87
2023-10-03T14:03:51.972Z,28.04
2023-10-03T14:06:22.087Z,28.03
2023-10-03T14:08:51.215Z,27.96
2023-10-03T14:11:23.373Z,27.73
2023-10-03T14:13:54.836Z,27.84
2023-10-03T14:16:24.061Z,27.73
2023-10-03T14:18:53.482Z,27.48
2023-10-03T14:21:31.924Z,27.45
2023-10-03T14:24:05.155Z,27.31
2023-10-03T14:26:33.803Z,27.17
2023-10-03T14:29:05.459Z,27.10
2023-10-03T14:31:34.470Z,27.08
2023-10-03T14:34:03.232Z,26.95
2023-10-03T14:36:33.085Z,26.87
2023-10-03T14:39:02.268Z,26.65
2023-10-03T14:41:31.507Z,26.63
2023-10-03T14:44:01.017Z,26.54
2023-10-03T14:46:31.391Z,26.34
2023-10-03T14:49:00.207Z,26.30
2023-10-03T14:51:29.025Z,26.07
2023-10-03T14:53:58.097Z,26.11
2023-10-03T14:56:26.731Z,26.13
2023-10-03T14:58:55.363Z,25.93
2023-10-03T15:01:24.644Z,25.90
2023-10-03T15:03:56.572Z,25.88
2023-10-03T15:06:25.655Z,25.64
2023-10-03T15:08:54.900Z,25.54
2023-10-03T15:11:23.614Z,25.57
2023-10-03T15:13:53.020Z,25.46
2023-10-03T15:16:21.795Z,25.34
2023-10-03T15:18:50.482Z,25.26
2023-10-03T15:21:20.950Z,25.43
2023-10-03T15:23:50.480Z,25.30
2023-10-03T15:26:19.424Z,25.03
2023-10-03T15:28:49.706Z,25.09
2023-10-03T15:31:23.940Z,25.04
2023-10-03T15:33:53.728Z,24.74
2023-10-03T15:36:24.341Z,24.62
2023-10-03T15:38:53.453Z,24.62
2023-10-03T15:41:22.243Z,24.62
2023-10-03T15:43:50.919Z,24.39
2023-10-03T15:46:20.094Z,24.33
2023-10-03T15:48:48.869Z,24.40
2023-10-03T15:51:17.952Z,24.46
2023-10-03T15:53:48.634Z,24.22
2023-10-03T15:56:18.616Z,24.11
2023-10-03T15:58:47.810Z,23.97
2023-10-03T16:01:17.372Z,23.92
2023-10-03T16:03:48.167Z,23.72
2023-10-03T16:06:18.334Z,23.74
2023-10-03T16:08:51.011Z,23.41
2023-10-03T16:11:20.455Z,23.42
2023-10-03T16:13:50.202Z,23.36
2023-10-03T16:16:19.598Z,23.28
2023-10-03T16:18:48.830Z,23.05
2023-10-03T16:21:19.071Z,23.02
2023-10-03T16:23:50.070Z,22.97
2023-10-03T16:26:20.089Z,22.77
2023-10-03T16:28:51.233Z,22.70
2023-10-03T16:31:21.425Z,22.57
2023-10-03T16:33:51.662Z,22.65
2023-10-03T16:36:21.731Z,22.38
2023-10-03T16:38:52.717Z,22.47
2023-10-03T16:41:23.402Z,22.25
2023-10-03T16:43:52.365Z,22.02
2023-10-03T16:46:23.488Z,21.88
2023-10-03T16:48:53.434Z,21.88
2023-10-03T16:51:24.782Z,21.87
2023-10-03T16:53:56.874Z,21.77
2023-10-03T16:56:26.977Z,21.59
2023-10-03T16:58:56.786Z,21.58
2023-10-03T17:01:26.792Z,21.47
2023-10-03T17:03:59.148Z,21.48
2023-10-03T17:06:29.799Z,21.41
2023-10-03T17:09:02.903Z,21.38
2023-10-03T17:11:33.443Z,21.22
2023-10-03T17:14:03.895Z,21.13
2023-10-03T17:16:34.950Z,21.25
2023-10-03T17:19:09.476Z,21.09
2023-10-03T17:21:39.222Z,20.99
2023-10-03T17:24:13.691Z,21.08
2023-10-03T17:26:48.178Z,21.07
2023-10-03T17:29:23.192Z,20.84
2023-10-03T17:31:55.813Z,20.81
2023-10-03T17:34:27.568Z,20.66
2023-10-03T17:36:56.823Z,20.76
2023-10-03T17:39:30.043Z,20.60
2023-10-03T17:42:00.421Z,20.58
2023-10-03T17:44:32.610Z,20.54
2023-10-03T17:47:03.238Z,20.59
2023-10-03T17:49:36.982Z,20.49
2023-10-03T17:52:08.918Z,20.34
2023-10-03T17:54:41.322Z,20.24
2023-10-03T17:57:11.919Z,20.24
2023-10-03T18:00:00.347Z,20.26
2023-10-03T18:02:37.637Z,20.20
2023-10-03T18:05:11.201Z,20.16
2023-10-03T18:07:46.005Z,20.36
2023-10-03T18:10:24.378Z,20.07
2023-10-03T18:13:01.108Z,20.04
2023-10-03T18:15:31.171Z,20.04
2023-10-03T18:18:02.288Z,20.10
2023-10-03T18:20:39.819Z,19.92
2023-10-03T18:23:10.609Z,19.92
2023-10-03T18:25:43.966Z,20.09
2023-10-03T18:28:16.411Z,19.99
2023-10-03T18:30:48.355Z,19.83
2023-10-03T18:33:20.266Z,19.83
2023-10-03T18:35:51.450Z,19.72
2023-10-03T18:38:29.339Z,19.74
2023-10-03T18:41:05.390Z,19.73
2023-10-03T18:43:38.482Z,19.70
2023-10-03T18:46:11.702Z,19.58
2023-10-03T18:48:42.623Z,19.64
2023-10-03T18:51:14.081Z,19.71
2023-10-03T18:53:48.477Z,19.65
2023-10-03T18:56:29.023Z,19.62
2023-10-03T18:59:04.112Z,19.73
2023-10-03T19:01:49.522Z,19.70
2023-10-03T19:04:28.958Z,19.87
2023-10-03T19:07:02.085Z,19.52
2023-10-03T19:09:38.346Z,19.77
2023-10-03T19:12:14.896Z,19.50
2023-10-03T19:14:50.451Z,19.56
2023-10-03T19:17:21.447Z,19.32
2023-10-03T19:19:58.293Z,19.61
2023-10-03T19:22:30.436Z,19.35
2023-10-03T19:25:06.571Z,19.34
2023-10-03T19:27:42.543Z,19.12
2023-10-03T19:30:20.168Z,19.50
2023-10-03T19:32:51.583Z,19.33
2023-10-03T19:35:23.122Z,19.14
2023-10-03T19:37:57.426Z,19.34
2023-10-03T19:40:31.435Z,19.23
2023-10-03T19:43:09.037Z,19.14
2023-10-03T19:45:44.351Z,19.33
2023-10-03T19:48:22.981Z,19.13
2023-10-03T19:51:07.733Z,19.26
2023-10-03T19:53:39.637Z,19.33
2023-10-03T19:56:17.736Z,19.55
2023-10-03T19:58:53.686Z,19.46
2023-10-03T20:01:25.924Z,19.68
2023-10-03T20:03:58.852Z,19.57
2023-10-03T20:06:33.216Z,19.69
2023-10-03T20:09:09.441Z,19.70
2023-10-03T20:11:41.196Z,19.86
2023-10-03T20:14:16.591Z,20.03
2023-10-03T20:16:47.763Z,19.97
2023-10-03T20:19:21.595Z,19.97
2023-10-03T20:21:56.059Z,19.96
2023-10-03T20:24:27.766Z,20.18
2023-10-03T20:26:57.839Z,20.29
2023-10-03T20:29:30.778Z,20.11
2023-10-03T20:32:01.798Z,20.20
2023-10-03T20:34:33.155Z,20.15
2023-10-03T20:37:04.250Z,20.09
2023-10-03T20:39:38.724Z,20.23
2023-10-03T20:42:08.110Z,20.23
2023-10-03T20:44:39.739Z,20.17
2023-10-03T20:47:09.610Z,20.17
2023-10-03T20:49:43.009Z,19.96
2023-10-03T20:52:12.176Z,19.99
2023-10-03T20:54:41.179Z,20.00
2023-10-03T20:57:09.950Z,20.09
2023-10-03T20:59:40.124Z,19.96
2023-10-03T21:02:10.004Z,19.69
2023-10-03T21:04:38.915Z,19.69
2023-10-03T21:07:08.040Z,19.77
2023-10-03T21:09:37.122Z,19.92
2023-10-03T21:12:07.131Z,19.70
2023-10-03T21:14:35.932Z,19.58
2023-10-03T21:17:07.980Z,19.55
2023-10-03T21:19:38.339Z,19.51
2023-10-03T21:22:07.999Z,19.38
2023-10-03T21:24:36.673Z,19.43
2023-10-03T21:27:05.409Z,19.56
2023-10-03T21:29:34.705Z,19.58
2023-10-03T21:32:05.360Z,19.41
2023-10-03T21:34:36.914Z,18.90
2023-10-03T21:37:07.470Z,19.25
2023-10-03T21:39:36.924Z,19.34
2023-10-03T21:42:06.078Z,19.06
2023-10-03T21:44:35.185Z,19.18
2023-10-03T21:47:04.417Z,19.51
2023-10-03T21:49:35.905Z,19.38
2023-10-03T21:52:06.372Z,19.44
2023-10-03T21:54:35.087Z,19.15
2023-10-03T21:57:03.946Z,19.23
2023-10-03T21:59:32.956Z,19.31
2023-10-03T22:02:01.652Z,19.14
2023-10-03T22:04:30.658Z,19.08
2023-10-03T22:06:59.361Z,18.92
2023-10-03T22:09:29.469Z,18.89
2023-10-03T22:11:58.567Z,18.84
2023-10-03T22:14:27.928Z,19.12
2023-10-03T22:16:56.677Z,18.98
2023-10-03T22:19:25.630Z,18.81
2023-10-03T22:21:54.558Z,18.63
2023-10-03T22:24:23.460Z,18.69
2023-10-03T22:26:54.021Z,18.69
2023-10-03T22:29:22.672Z,18.79
2023-10-03T22:31:51.577Z,18.53
2023-10-03T22:34:21.047Z,18.45
2023-10-03T22:36:49.685Z,18.46
2023-10-03T22:39:18.385Z,18.39
2023-10-03T22:41:47.386Z,18.45
2023-10-03T22:44:17.445Z,18.54
2023-10-03T22:46:46.087Z,18.42
2023-10-03T22:49:15.088Z,18.37
2023-10-03T22:51:43.858Z,18.30
2023-10-03T22:54:12.615Z,18.34
2023-10-03T22:56:41.567Z,18.33
2023-10-03T22:59:11.371Z,18.32
2023-10-03T23:01:41.963Z,18.38
2023-10-03T23:04:10.982Z,18.25
2023-10-03T23:06:43.130Z,18.18
2023-10-03T23:09:12.179Z,18.01
2023-10-03T23:11:40.840Z,18.21
2023-10-03T23:14:09.512Z,18.02
2023-10-03T23:16:38.473Z,18.07
2023-10-03T23:19:08.723Z,18.18
2023-10-03T23:21:37.347Z,18.21
2023-10-03T23:24:11.093Z,18.10
2023-10-03T23:26:39.847Z,17.97
2023-10-03T23:29:08.767Z,17.94
2023-10-03T23:31:37.894Z,18.05
2023-10-03T23:34:08.223Z,17.83
2023-10-03T23:36:37.233Z,18.01
2023-10-03T23:39:07.618Z,17.96
2023-10-03T23:41:37.104Z,18.05
2023-10-03T23:44:07.632Z,17.85
2023-10-03T23:46:36.370Z,17.80
2023-10-03T23:49:06.080Z,17.91
2023-10-03T23:51:36.685Z,17.70
2023-10-03T23:54:11.148Z,17.86
2023-10-03T23:56:44.462Z,18.11
2023-10-03T23:59:13.144Z,17.89
